Hurlburt Field
KHRT : now visible

Airfield :











YOU CAN JOIN US ON...

 
LOGIN :

Register | Disclaimer

   EN    FR    IT 

 









Legend :    VFR   Marginal VFR   IFR   Intensive IFR   Very Intensive IFR
Visi :
Ceiling :
>= 8 km
>= 3000ft
5 to 8 km
1000 to 3000 ft
1500m to 5 km
500 to 1000 ft
800 to 1500m
200 to 500 ft
< 800m
< 200 ft
Symbols :   Thunderstorms  Fog  Heavy snow  Heavy precipitations  Wind > 20 kt






- Airport Elevation : 38 ft


KHRT - Hurlburt Field

CURRENT METAR :
  • 261456Z 34011KT 10SM BKN150 OVC200 15/11 A2999 RMK AO2A SLP157 T01470107 $

EXPIRED METARs :
  • 261356Z 34008KT 10SM BKN170 14/11 A2996 RMK AO2A SLP147 T01390109 52029 $
  • 261256Z 36005KT 10SM OVC190 13/11 A2991 RMK SLP130 T01330112 $

TAF TAF KHRT
Valid from the 26 at 10:00 until the 27 at 16:00 UTC


261000Z 2610/2716 36005KT 9999 BKN035 BKN075 QNH2987INS
BECMG 2614/2615 34011KT 9999 SCT050 BKN080 QNH2991INS
BECMG 2615/2616 33015G25KT 9999 SCT050 BKN080 QNH2993INS
BECMG 2619/2620 33015G25KT 9999 SCT080 QNH2994INS
BECMG 2703/2704 33015G20KT 9999 SCT200 QNH3011INS TX17/2619Z TN13/2611Z



MET'MAP, your aeronautical weather chart ! - Copyright ORBIFLY December 2007 - Disclaimer

ORBIFLY MET'MAP TEAM :

Programming & Development : Alexandra Zaïnal
Concept & original design : Baudouin d'Aumeries
Assistance for programming : Marc-Olivier Méhu
Technical & hardware support : Manuel Goepfert

Contact : metmap@orbifly.com




SOURCES & CREDITS :

   NOAA       Earth
Advisory